Main page
METAR-TAF:

METAR-TAF

Airports :

Kuwait City, Kuwait

Kuwait International Airport

latitude: 29-13N, longitude: 047-59E, elevation: 55 m

Current weather observation

The report was made 33 minutes ago, at 16:00 UTC
Wind 10 kt from the North
Temperature 19°C
Humidity 37%
Pressure 1022 hPa
Visibility 10 km or more
no clouds below 1500 m and no cumulonimbus

METAR: OKBK 241600Z 35010KT CAVOK 19/04 Q1022 NOSIG

Time: 19:33 (16:33 UTC)

Forecast

The report was made 5 hours and 48 minutes ago, at 10:45 UTC
Forecast valid from 24 at 12 UTC to 25 at 18 UTC
Wind 12 kt from the North/Northwest
Visibility: 8000 m
Temporary
from 24 at 12 UTC to 24 at 22 UTC
Wind 3 kt from variable directions

TAF: OKBK 241045Z 2412/2518 34012KT 8000 NSC TEMPO 2412/2422 VRB03KT

Weather observations and forecasts of more than 4000 airports (METAR and TAF reports).

The available stations are represented by yellow and red dots on the map.

Hover mouse over dot to see the name of the station.

Then click to see weather observations and forecasts.

To change the map : click on the green buttons with a black cross to zoom in, on the green button with a dash to zoom out, or on the green arrows for adjacent maps.


METAR-TAF: